Terminal Aerodrome Forecast
Issued by NWS Jacksonville, FL

Home | Current Version | Previous Version | Text Only | Print | Product List | Glossary On
Versions: 1 2 3 4 5 6 7 8 9 10 11 12 13 14 15 16 17
000
FTUS42 KJAX 292323
TAFSSI
TAF
KSSI 292323Z 3000/3024 07009KT P6SM VCSH SCT030 BKN070
     FM301300 08011G16KT P6SM VCSH BKN030 BKN050
     FM301700 09014G21KT P6SM SCT035 BKN060 BKN250=

USA.gov is the U.S. government's official web portal to all federal, state and local government web resources and services.